sensor_id;sensor_type;location;lat;lon;timestamp;pressure;altitude;pressure_sealevel;temperature;humidity
40788;BME280;26497;52.494;7.546;2023-05-10T00:01:45;100079.31;;;19.09;85.91
40788;BME280;26497;52.494;7.546;2023-05-10T00:04:14;100081.63;;;19.17;85.93
40788;BME280;26497;52.494;7.546;2023-05-10T00:06:41;100077.97;;;19.20;85.97
40788;BME280;26497;52.494;7.546;2023-05-10T00:09:09;100074.19;;;19.24;85.66
40788;BME280;26497;52.494;7.546;2023-05-10T00:11:37;100075.06;;;19.24;85.49
40788;BME280;26497;52.494;7.546;2023-05-10T00:14:04;100071.31;;;19.28;85.35
40788;BME280;26497;52.494;7.546;2023-05-10T00:16:31;100074.84;;;19.29;85.01
40788;BME280;26497;52.494;7.546;2023-05-10T00:19:01;100083.09;;;19.24;85.22
40788;BME280;26497;52.494;7.546;2023-05-10T00:21:28;100080.19;;;19.29;85.06
40788;BME280;26497;52.494;7.546;2023-05-10T00:23:55;100068.66;;;19.28;85.15
40788;BME280;26497;52.494;7.546;2023-05-10T00:26:26;100069.28;;;19.34;84.65
40788;BME280;26497;52.494;7.546;2023-05-10T00:28:53;100067.28;;;19.20;84.99
40788;BME280;26497;52.494;7.546;2023-05-10T00:31:20;100063.72;;;19.19;84.93
40788;BME280;26497;52.494;7.546;2023-05-10T00:33:59;100059.81;;;19.26;84.96
40788;BME280;26497;52.494;7.546;2023-05-10T00:36:27;100050.13;;;19.24;84.93
40788;BME280;26497;52.494;7.546;2023-05-10T00:38:56;100059.81;;;19.26;84.65
40788;BME280;26497;52.494;7.546;2023-05-10T00:41:25;100055.34;;;19.27;84.61
40788;BME280;26497;52.494;7.546;2023-05-10T00:43:53;100052.81;;;19.24;84.54
40788;BME280;26497;52.494;7.546;2023-05-10T00:46:22;100053.75;;;19.23;84.60
40788;BME280;26497;52.494;7.546;2023-05-10T00:48:53;100047.78;;;19.18;84.74
40788;BME280;26497;52.494;7.546;2023-05-10T00:51:21;100050.72;;;19.11;85.27
40788;BME280;26497;52.494;7.546;2023-05-10T00:53:49;100052.94;;;19.01;85.66
40788;BME280;26497;52.494;7.546;2023-05-10T00:56:18;100047.41;;;19.06;85.60
40788;BME280;26497;52.494;7.546;2023-05-10T00:58:47;100049.28;;;19.04;85.55
40788;BME280;26497;52.494;7.546;2023-05-10T01:01:18;100049.47;;;18.99;85.80
40788;BME280;26497;52.494;7.546;2023-05-10T01:03:46;100053.16;;;18.97;85.70
40788;BME280;26497;52.494;7.546;2023-05-10T01:06:15;100052.38;;;18.93;86.07
40788;BME280;26497;52.494;7.546;2023-05-10T01:08:50;100054.19;;;18.93;86.28
40788;BME280;26497;52.494;7.546;2023-05-10T01:11:17;100049.66;;;18.95;86.10
40788;BME280;26497;52.494;7.546;2023-05-10T01:13:51;100046.31;;;18.90;86.91
40788;BME280;26497;52.494;7.546;2023-05-10T01:16:19;100042.75;;;18.89;86.81
40788;BME280;26497;52.494;7.546;2023-05-10T01:18:47;100051.53;;;18.93;86.55
40788;BME280;26497;52.494;7.546;2023-05-10T01:21:23;100053.88;;;19.00;86.48
40788;BME280;26497;52.494;7.546;2023-05-10T01:31:12;100045.53;;;18.88;86.98
40788;BME280;26497;52.494;7.546;2023-05-10T01:33:47;100038.75;;;18.79;87.37
40788;BME280;26497;52.494;7.546;2023-05-10T01:36:26;100050.56;;;18.54;87.82
40788;BME280;26497;52.494;7.546;2023-05-10T01:39:02;100061.84;;;18.18;88.82
40788;BME280;26497;52.494;7.546;2023-05-10T01:41:41;100063.22;;;18.06;88.49
40788;BME280;26497;52.494;7.546;2023-05-10T01:44:23;100055.97;;;18.09;87.53
40788;BME280;26497;52.494;7.546;2023-05-10T01:46:57;100053.13;;;17.90;88.08
40788;BME280;26497;52.494;7.546;2023-05-10T01:49:32;100057.28;;;17.97;87.81
40788;BME280;26497;52.494;7.546;2023-05-10T01:52:18;100057.94;;;17.82;87.96
40788;BME280;26497;52.494;7.546;2023-05-10T01:54:52;100059.94;;;17.77;88.19
40788;BME280;26497;52.494;7.546;2023-05-10T01:57:23;100060.09;;;17.72;88.40
40788;BME280;26497;52.494;7.546;2023-05-10T02:00:15;100062.03;;;17.68;88.46
40788;BME280;26497;52.494;7.546;2023-05-10T02:02:48;100063.28;;;17.82;87.74
40788;BME280;26497;52.494;7.546;2023-05-10T02:05:39;100066.75;;;17.84;87.44
40788;BME280;26497;52.494;7.546;2023-05-10T02:08:20;100069.53;;;17.81;87.58
40788;BME280;26497;52.494;7.546;2023-05-10T02:10:54;100067.13;;;17.75;87.78
40788;BME280;26497;52.494;7.546;2023-05-10T02:13:25;100073.38;;;17.74;88.00
40788;BME280;26497;52.494;7.546;2023-05-10T02:15:55;100071.66;;;17.73;87.94
40788;BME280;26497;52.494;7.546;2023-05-10T02:18:26;100077.13;;;17.68;88.31
40788;BME280;26497;52.494;7.546;2023-05-10T02:20:55;100075.59;;;17.62;88.66
40788;BME280;26497;52.494;7.546;2023-05-10T02:23:25;100079.19;;;17.61;89.23
40788;BME280;26497;52.494;7.546;2023-05-10T02:25:54;100086.31;;;17.61;89.22
40788;BME280;26497;52.494;7.546;2023-05-10T02:28:22;100078.03;;;17.68;89.00
40788;BME280;26497;52.494;7.546;2023-05-10T02:30:51;100084.91;;;17.74;88.27
40788;BME280;26497;52.494;7.546;2023-05-10T02:33:19;100082.88;;;17.81;88.08
40788;BME280;26497;52.494;7.546;2023-05-10T02:35:47;100088.34;;;17.78;87.97
40788;BME280;26497;52.494;7.546;2023-05-10T02:38:16;100082.34;;;17.71;88.26
40788;BME280;26497;52.494;7.546;2023-05-10T02:40:46;100080.63;;;17.70;88.03
40788;BME280;26497;52.494;7.546;2023-05-10T02:43:15;100084.22;;;17.69;88.09
40788;BME280;26497;52.494;7.546;2023-05-10T02:45:43;100083.34;;;17.68;87.93
40788;BME280;26497;52.494;7.546;2023-05-10T02:48:13;100081.78;;;17.63;88.24
40788;BME280;26497;52.494;7.546;2023-05-10T02:50:44;100082.03;;;17.57;88.51
40788;BME280;26497;52.494;7.546;2023-05-10T02:53:20;100087.31;;;17.58;88.61
40788;BME280;26497;52.494;7.546;2023-05-10T02:55:52;100080.97;;;17.61;88.40
40788;BME280;26497;52.494;7.546;2023-05-10T02:58:21;100081.75;;;17.64;88.11
40788;BME280;26497;52.494;7.546;2023-05-10T03:00:49;100078.06;;;17.67;87.83
40788;BME280;26497;52.494;7.546;2023-05-10T03:03:16;100082.66;;;17.63;87.87
40788;BME280;26497;52.494;7.546;2023-05-10T03:05:43;100092.81;;;17.53;88.25
40788;BME280;26497;52.494;7.546;2023-05-10T03:08:10;100088.34;;;17.54;88.30
40788;BME280;26497;52.494;7.546;2023-05-10T03:10:50;100085.47;;;17.60;88.13
40788;BME280;26497;52.494;7.546;2023-05-10T03:13:34;100089.84;;;17.61;88.12
40788;BME280;26497;52.494;7.546;2023-05-10T03:16:09;100088.94;;;17.62;87.73
40788;BME280;26497;52.494;7.546;2023-05-10T03:18:44;100077.25;;;17.65;87.57
40788;BME280;26497;52.494;7.546;2023-05-10T03:21:12;100087.13;;;17.63;87.75
40788;BME280;26497;52.494;7.546;2023-05-10T03:23:45;100087.00;;;17.66;87.48
40788;BME280;26497;52.494;7.546;2023-05-10T03:26:20;100083.94;;;17.53;87.80
40788;BME280;26497;52.494;7.546;2023-05-10T03:28:48;100092.09;;;17.48;88.01
40788;BME280;26497;52.494;7.546;2023-05-10T03:31:17;100093.69;;;17.54;87.76
40788;BME280;26497;52.494;7.546;2023-05-10T03:33:48;100085.25;;;17.65;87.23
40788;BME280;26497;52.494;7.546;2023-05-10T03:36:15;100092.28;;;17.67;86.97
40788;BME280;26497;52.494;7.546;2023-05-10T03:38:42;100095.94;;;17.65;87.11
40788;BME280;26497;52.494;7.546;2023-05-10T03:41:09;100095.13;;;17.63;87.01
40788;BME280;26497;52.494;7.546;2023-05-10T03:43:38;100106.00;;;17.57;87.29
40788;BME280;26497;52.494;7.546;2023-05-10T03:46:06;100103.44;;;17.55;87.62
40788;BME280;26497;52.494;7.546;2023-05-10T03:48:33;100099.13;;;17.51;87.61
40788;BME280;26497;52.494;7.546;2023-05-10T03:51:00;100108.19;;;17.47;88.06
40788;BME280;26497;52.494;7.546;2023-05-10T03:53:27;100108.88;;;17.52;87.77
40788;BME280;26497;52.494;7.546;2023-05-10T03:55:54;100111.53;;;17.52;87.69
40788;BME280;26497;52.494;7.546;2023-05-10T03:58:21;100109.00;;;17.49;87.84
40788;BME280;26497;52.494;7.546;2023-05-10T04:00:51;100118.38;;;17.59;87.70
40788;BME280;26497;52.494;7.546;2023-05-10T04:03:18;100115.59;;;17.62;87.22
40788;BME280;26497;52.494;7.546;2023-05-10T04:05:46;100108.06;;;17.74;86.77
40788;BME280;26497;52.494;7.546;2023-05-10T04:08:13;100121.41;;;17.72;86.76
40788;BME280;26497;52.494;7.546;2023-05-10T04:10:43;100123.16;;;17.73;86.76
40788;BME280;26497;52.494;7.546;2023-05-10T04:13:15;100119.88;;;17.66;87.22
40788;BME280;26497;52.494;7.546;2023-05-10T04:15:44;100124.56;;;17.60;87.55
40788;BME280;26497;52.494;7.546;2023-05-10T04:18:13;100125.31;;;17.63;87.59
40788;BME280;26497;52.494;7.546;2023-05-10T04:20:43;100121.31;;;17.75;87.22
40788;BME280;26497;52.494;7.546;2023-05-10T04:23:10;100131.00;;;17.78;86.87
40788;BME280;26497;52.494;7.546;2023-05-10T04:25:37;100121.03;;;17.83;86.61
40788;BME280;26497;52.494;7.546;2023-05-10T04:28:04;100118.25;;;17.86;86.33
40788;BME280;26497;52.494;7.546;2023-05-10T04:30:33;100130.19;;;17.76;86.49
40788;BME280;26497;52.494;7.546;2023-05-10T04:33:01;100126.75;;;17.72;87.00
40788;BME280;26497;52.494;7.546;2023-05-10T04:35:29;100127.06;;;17.64;87.35
40788;BME280;26497;52.494;7.546;2023-05-10T04:37:56;100131.97;;;17.75;87.33
40788;BME280;26497;52.494;7.546;2023-05-10T04:40:23;100128.91;;;17.86;87.01
40788;BME280;26497;52.494;7.546;2023-05-10T04:42:50;100134.13;;;17.65;87.75
40788;BME280;26497;52.494;7.546;2023-05-10T04:45:17;100133.44;;;17.60;88.20
40788;BME280;26497;52.494;7.546;2023-05-10T04:47:46;100143.34;;;17.57;88.80
40788;BME280;26497;52.494;7.546;2023-05-10T04:50:14;100138.78;;;17.60;88.75
40788;BME280;26497;52.494;7.546;2023-05-10T04:52:42;100144.13;;;17.82;88.17
40788;BME280;26497;52.494;7.546;2023-05-10T04:55:18;100150.63;;;17.75;88.03
40788;BME280;26497;52.494;7.546;2023-05-10T04:58:13;100152.56;;;17.72;88.73
40788;BME280;26497;52.494;7.546;2023-05-10T05:01:03;100153.63;;;17.67;89.08
40788;BME280;26497;52.494;7.546;2023-05-10T05:03:39;100155.75;;;17.81;88.51
40788;BME280;26497;52.494;7.546;2023-05-10T05:06:17;100154.38;;;17.93;88.16
40788;BME280;26497;52.494;7.546;2023-05-10T05:08:45;100149.97;;;18.16;87.33
40788;BME280;26497;52.494;7.546;2023-05-10T05:11:14;100159.47;;;18.23;87.23
40788;BME280;26497;52.494;7.546;2023-05-10T05:13:44;100154.94;;;18.25;86.76
40788;BME280;26497;52.494;7.546;2023-05-10T05:16:12;100163.31;;;18.16;87.29
40788;BME280;26497;52.494;7.546;2023-05-10T05:18:39;100163.19;;;18.19;86.83
40788;BME280;26497;52.494;7.546;2023-05-10T05:21:15;100173.00;;;17.95;87.60
40788;BME280;26497;52.494;7.546;2023-05-10T05:23:46;100172.78;;;17.77;88.65
40788;BME280;26497;52.494;7.546;2023-05-10T05:26:15;100176.97;;;17.84;88.38
40788;BME280;26497;52.494;7.546;2023-05-10T05:28:42;100178.34;;;17.95;87.76
40788;BME280;26497;52.494;7.546;2023-05-10T05:31:11;100186.19;;;18.00;87.26
40788;BME280;26497;52.494;7.546;2023-05-10T05:33:40;100186.19;;;18.00;87.61
40788;BME280;26497;52.494;7.546;2023-05-10T05:36:08;100187.38;;;17.91;87.90
40788;BME280;26497;52.494;7.546;2023-05-10T05:38:36;100191.41;;;18.03;87.42
40788;BME280;26497;52.494;7.546;2023-05-10T05:41:05;100194.84;;;18.06;87.41
40788;BME280;26497;52.494;7.546;2023-05-10T05:43:32;100192.59;;;17.94;87.55
40788;BME280;26497;52.494;7.546;2023-05-10T05:45:59;100193.94;;;18.06;87.13
40788;BME280;26497;52.494;7.546;2023-05-10T05:48:26;100197.53;;;18.05;87.46
40788;BME280;26497;52.494;7.546;2023-05-10T05:50:55;100192.63;;;18.18;87.44
40788;BME280;26497;52.494;7.546;2023-05-10T05:53:22;100191.47;;;18.23;86.85
40788;BME280;26497;52.494;7.546;2023-05-10T05:55:53;100192.28;;;18.25;87.60
40788;BME280;26497;52.494;7.546;2023-05-10T05:58:22;100198.59;;;18.47;87.63
40788;BME280;26497;52.494;7.546;2023-05-10T06:00:49;100197.19;;;18.59;87.75
40788;BME280;26497;52.494;7.546;2023-05-10T06:03:17;100193.28;;;18.88;87.48
40788;BME280;26497;52.494;7.546;2023-05-10T06:05:45;100196.81;;;18.68;86.78
40788;BME280;26497;52.494;7.546;2023-05-10T06:08:12;100201.69;;;18.79;87.27
40788;BME280;26497;52.494;7.546;2023-05-10T06:10:39;100212.97;;;19.08;86.90
40788;BME280;26497;52.494;7.546;2023-05-10T06:13:06;100211.03;;;19.32;85.70
40788;BME280;26497;52.494;7.546;2023-05-10T06:15:34;100207.94;;;19.62;85.73
40788;BME280;26497;52.494;7.546;2023-05-10T06:18:01;100203.72;;;19.77;84.35
40788;BME280;26497;52.494;7.546;2023-05-10T06:20:28;100211.38;;;20.04;83.65
40788;BME280;26497;52.494;7.546;2023-05-10T06:23:00;100200.81;;;20.01;82.53
40788;BME280;26497;52.494;7.546;2023-05-10T06:25:27;100198.25;;;19.79;81.06
40788;BME280;26497;52.494;7.546;2023-05-10T06:27:56;100206.34;;;20.17;81.60
40788;BME280;26497;52.494;7.546;2023-05-10T06:30:24;100206.25;;;20.18;78.93
40788;BME280;26497;52.494;7.546;2023-05-10T06:32:55;100208.28;;;20.32;79.03
40788;BME280;26497;52.494;7.546;2023-05-10T06:35:22;100206.34;;;20.54;78.31
40788;BME280;26497;52.494;7.546;2023-05-10T06:37:49;100211.47;;;20.58;77.94
40788;BME280;26497;52.494;7.546;2023-05-10T06:40:17;100213.00;;;20.27;76.83
40788;BME280;26497;52.494;7.546;2023-05-10T06:42:46;100211.41;;;20.23;77.66
40788;BME280;26497;52.494;7.546;2023-05-10T06:45:14;100215.88;;;20.42;77.57
40788;BME280;26497;52.494;7.546;2023-05-10T06:47:42;100219.13;;;20.66;76.78
40788;BME280;26497;52.494;7.546;2023-05-10T06:50:10;100224.97;;;20.74;77.10
40788;BME280;26497;52.494;7.546;2023-05-10T06:52:38;100223.69;;;20.64;75.63
40788;BME280;26497;52.494;7.546;2023-05-10T06:55:06;100224.97;;;20.74;75.82
40788;BME280;26497;52.494;7.546;2023-05-10T06:57:34;100224.31;;;20.52;74.77
40788;BME280;26497;52.494;7.546;2023-05-10T07:00:01;100225.28;;;20.31;75.49
40788;BME280;26497;52.494;7.546;2023-05-10T07:02:29;100234.13;;;19.95;76.43
40788;BME280;26497;52.494;7.546;2023-05-10T07:04:56;100238.09;;;20.06;76.87
40788;BME280;26497;52.494;7.546;2023-05-10T07:07:25;100245.19;;;20.07;76.28
40788;BME280;26497;52.494;7.546;2023-05-10T07:09:52;100242.78;;;20.00;76.31
40788;BME280;26497;52.494;7.546;2023-05-10T07:12:21;100241.91;;;20.00;76.27
40788;BME280;26497;52.494;7.546;2023-05-10T07:14:48;100243.06;;;19.94;76.26
40788;BME280;26497;52.494;7.546;2023-05-10T07:17:15;100245.44;;;19.81;76.72
40788;BME280;26497;52.494;7.546;2023-05-10T07:19:42;100250.56;;;19.86;76.66
40788;BME280;26497;52.494;7.546;2023-05-10T07:22:10;100246.97;;;19.66;76.72
40788;BME280;26497;52.494;7.546;2023-05-10T07:24:38;100248.38;;;19.75;76.93
40788;BME280;26497;52.494;7.546;2023-05-10T07:27:06;100254.72;;;19.93;76.82
40788;BME280;26497;52.494;7.546;2023-05-10T07:29:33;100249.38;;;19.72;77.13
40788;BME280;26497;52.494;7.546;2023-05-10T07:32:00;100256.75;;;19.67;76.78
40788;BME280;26497;52.494;7.546;2023-05-10T07:34:27;100253.84;;;19.93;75.67
40788;BME280;26497;52.494;7.546;2023-05-10T07:36:59;100247.22;;;19.81;75.76
40788;BME280;26497;52.494;7.546;2023-05-10T07:39:26;100249.91;;;19.60;75.69
40788;BME280;26497;52.494;7.546;2023-05-10T07:41:55;100251.53;;;19.43;76.41
40788;BME280;26497;52.494;7.546;2023-05-10T07:44:22;100258.56;;;19.46;77.64
40788;BME280;26497;52.494;7.546;2023-05-10T07:46:49;100254.59;;;19.55;78.07
40788;BME280;26497;52.494;7.546;2023-05-10T07:49:17;100261.97;;;19.50;78.71
40788;BME280;26497;52.494;7.546;2023-05-10T07:51:44;100257.50;;;19.50;79.09
40788;BME280;26497;52.494;7.546;2023-05-10T07:54:11;100262.22;;;19.64;79.26
40788;BME280;26497;52.494;7.546;2023-05-10T07:56:38;100261.91;;;19.51;79.45
40788;BME280;26497;52.494;7.546;2023-05-10T07:59:07;100265.00;;;19.82;80.22
40788;BME280;26497;52.494;7.546;2023-05-10T08:01:34;100261.44;;;20.02;80.50
40788;BME280;26497;52.494;7.546;2023-05-10T08:04:02;100262.84;;;20.49;79.48
40788;BME280;26497;52.494;7.546;2023-05-10T08:06:29;100272.00;;;20.82;78.27
40788;BME280;26497;52.494;7.546;2023-05-10T08:08:56;100275.09;;;21.44;76.53
40788;BME280;26497;52.494;7.546;2023-05-10T08:11:23;100281.00;;;21.51;74.03
40788;BME280;26497;52.494;7.546;2023-05-10T08:13:51;100281.72;;;21.72;72.37
40788;BME280;26497;52.494;7.546;2023-05-10T08:16:19;100282.91;;;21.67;70.59
40788;BME280;26497;52.494;7.546;2023-05-10T08:18:47;100292.78;;;21.48;69.89
40788;BME280;26497;52.494;7.546;2023-05-10T08:21:15;100284.41;;;21.02;70.04
40788;BME280;26497;52.494;7.546;2023-05-10T08:23:42;100297.50;;;20.52;72.22
40788;BME280;26497;52.494;7.546;2023-05-10T08:26:09;100293.53;;;20.42;72.38
40788;BME280;26497;52.494;7.546;2023-05-10T08:28:36;100296.47;;;19.97;74.62
40788;BME280;26497;52.494;7.546;2023-05-10T08:31:05;100296.69;;;20.31;74.94
40788;BME280;26497;52.494;7.546;2023-05-10T08:33:33;100294.25;;;20.26;74.00
40788;BME280;26497;52.494;7.546;2023-05-10T08:36:00;100303.88;;;20.30;74.83
40788;BME280;26497;52.494;7.546;2023-05-10T08:38:27;100294.41;;;20.98;74.77
40788;BME280;26497;52.494;7.546;2023-05-10T08:40:55;100299.19;;;21.97;70.24
40788;BME280;26497;52.494;7.546;2023-05-10T08:43:27;100303.00;;;23.37;67.70
40788;BME280;26497;52.494;7.546;2023-05-10T08:45:56;100300.91;;;24.17;61.18
40788;BME280;26497;52.494;7.546;2023-05-10T08:48:26;100301.47;;;24.07;59.97
40788;BME280;26497;52.494;7.546;2023-05-10T08:51:03;100311.34;;;23.33;57.83
40788;BME280;26497;52.494;7.546;2023-05-10T08:53:32;100309.97;;;23.09;60.23
40788;BME280;26497;52.494;7.546;2023-05-10T08:56:02;100316.47;;;22.75;60.66
40788;BME280;26497;52.494;7.546;2023-05-10T08:58:29;100320.84;;;22.92;63.21
40788;BME280;26497;52.494;7.546;2023-05-10T09:01:00;100316.03;;;23.29;57.83
40788;BME280;26497;52.494;7.546;2023-05-10T09:03:30;100320.78;;;23.40;59.16
40788;BME280;26497;52.494;7.546;2023-05-10T09:05:58;100321.88;;;23.52;59.73
40788;BME280;26497;52.494;7.546;2023-05-10T09:08:29;100315.00;;;23.91;57.84
40788;BME280;26497;52.494;7.546;2023-05-10T09:11:00;100317.06;;;24.31;56.67
40788;BME280;26497;52.494;7.546;2023-05-10T09:13:30;100317.19;;;24.57;52.23
40788;BME280;26497;52.494;7.546;2023-05-10T09:15:58;100322.38;;;24.74;53.41
40788;BME280;26497;52.494;7.546;2023-05-10T09:18:26;100318.63;;;25.05;51.61
40788;BME280;26497;52.494;7.546;2023-05-10T09:20:53;100317.69;;;25.46;51.26
40788;BME280;26497;52.494;7.546;2023-05-10T09:23:23;100319.06;;;26.79;51.53
40788;BME280;26497;52.494;7.546;2023-05-10T09:26:04;100319.25;;;27.96;46.87
40788;BME280;26497;52.494;7.546;2023-05-10T09:28:32;100325.38;;;28.90;42.46
40788;BME280;26497;52.494;7.546;2023-05-10T09:30:59;100328.41;;;28.41;42.81
40788;BME280;26497;52.494;7.546;2023-05-10T09:33:27;100332.75;;;27.62;43.00
40788;BME280;26497;52.494;7.546;2023-05-10T09:35:54;100325.19;;;26.94;43.74
40788;BME280;26497;52.494;7.546;2023-05-10T09:38:21;100333.06;;;26.73;46.82
40788;BME280;26497;52.494;7.546;2023-05-10T09:40:52;100331.63;;;26.81;46.86
40788;BME280;26497;52.494;7.546;2023-05-10T09:43:25;100339.00;;;27.27;48.63
40788;BME280;26497;52.494;7.546;2023-05-10T09:45:53;100338.53;;;28.28;42.37
40788;BME280;26497;52.494;7.546;2023-05-10T09:48:23;100336.63;;;27.83;44.42
40788;BME280;26497;52.494;7.546;2023-05-10T09:50:56;100345.84;;;27.80;45.21
40788;BME280;26497;52.494;7.546;2023-05-10T09:53:23;100346.41;;;28.31;44.51
40788;BME280;26497;52.494;7.546;2023-05-10T09:55:51;100342.31;;;28.25;41.88
40788;BME280;26497;52.494;7.546;2023-05-10T09:58:17;100348.75;;;27.30;42.28
40788;BME280;26497;52.494;7.546;2023-05-10T10:00:48;100345.50;;;27.49;42.06
40788;BME280;26497;52.494;7.546;2023-05-10T10:03:19;100347.22;;;27.50;40.54
40788;BME280;26497;52.494;7.546;2023-05-10T10:05:48;100349.59;;;26.69;43.03
40788;BME280;26497;52.494;7.546;2023-05-10T10:08:17;100357.03;;;26.02;44.80
40788;BME280;26497;52.494;7.546;2023-05-10T10:10:47;100362.75;;;26.10;45.84
40788;BME280;26497;52.494;7.546;2023-05-10T10:13:14;100364.84;;;26.32;47.61
40788;BME280;26497;52.494;7.546;2023-05-10T10:15:43;100365.91;;;25.91;46.87
40788;BME280;26497;52.494;7.546;2023-05-10T10:18:14;100363.44;;;26.14;47.39
40788;BME280;26497;52.494;7.546;2023-05-10T10:20:42;100371.63;;;26.12;46.03
40788;BME280;26497;52.494;7.546;2023-05-10T10:23:09;100371.41;;;26.41;43.85
40788;BME280;26497;52.494;7.546;2023-05-10T10:25:41;100372.66;;;26.74;45.79
40788;BME280;26497;52.494;7.546;2023-05-10T10:28:23;100372.06;;;27.19;44.73
40788;BME280;26497;52.494;7.546;2023-05-10T10:30:53;100364.63;;;28.17;42.83
40788;BME280;26497;52.494;7.546;2023-05-10T10:33:51;100361.53;;;28.79;38.74
40788;BME280;26497;52.494;7.546;2023-05-10T10:36:24;100360.47;;;28.36;38.08
40788;BME280;26497;52.494;7.546;2023-05-10T10:39:00;100368.47;;;27.67;38.24
40788;BME280;26497;52.494;7.546;2023-05-10T10:41:31;100370.16;;;26.71;41.99
40788;BME280;26497;52.494;7.546;2023-05-10T10:44:34;100369.63;;;26.66;43.29
40788;BME280;26497;52.494;7.546;2023-05-10T10:47:05;100373.56;;;26.99;42.98
40788;BME280;26497;52.494;7.546;2023-05-10T10:49:43;100375.97;;;27.40;42.32
40788;BME280;26497;52.494;7.546;2023-05-10T10:52:22;100363.09;;;27.90;40.78
40788;BME280;26497;52.494;7.546;2023-05-10T10:54:53;100364.41;;;27.85;40.15
40788;BME280;26497;52.494;7.546;2023-05-10T10:57:21;100364.28;;;27.75;40.73
40788;BME280;26497;52.494;7.546;2023-05-10T10:59:48;100382.25;;;26.78;41.79
40788;BME280;26497;52.494;7.546;2023-05-10T11:02:43;100382.03;;;26.18;44.45
40788;BME280;26497;52.494;7.546;2023-05-10T11:05:36;100376.22;;;25.58;45.57
40788;BME280;26497;52.494;7.546;2023-05-10T11:08:16;100384.13;;;25.07;46.97
40788;BME280;26497;52.494;7.546;2023-05-10T11:11:05;100387.31;;;23.97;48.12
40788;BME280;26497;52.494;7.546;2023-05-10T11:13:37;100390.72;;;23.40;48.54
40788;BME280;26497;52.494;7.546;2023-05-10T11:16:18;100386.66;;;23.49;50.27
40788;BME280;26497;52.494;7.546;2023-05-10T11:19:01;100401.47;;;23.40;50.19
40788;BME280;26497;52.494;7.546;2023-05-10T11:21:31;100410.78;;;23.02;50.68
40788;BME280;26497;52.494;7.546;2023-05-10T11:23:59;100403.84;;;22.98;51.85
40788;BME280;26497;52.494;7.546;2023-05-10T11:26:31;100407.69;;;23.10;52.44
40788;BME280;26497;52.494;7.546;2023-05-10T11:28:59;100411.53;;;23.20;53.69
40788;BME280;26497;52.494;7.546;2023-05-10T11:31:28;100413.16;;;22.92;53.61
40788;BME280;26497;52.494;7.546;2023-05-10T11:33:57;100418.16;;;23.15;54.56
40788;BME280;26497;52.494;7.546;2023-05-10T11:36:27;100413.69;;;23.62;55.08
40788;BME280;26497;52.494;7.546;2023-05-10T11:38:56;100415.97;;;23.98;54.00
40788;BME280;26497;52.494;7.546;2023-05-10T11:41:24;100413.41;;;23.97;53.52
40788;BME280;26497;52.494;7.546;2023-05-10T11:43:53;100421.03;;;23.74;51.86
40788;BME280;26497;52.494;7.546;2023-05-10T11:46:22;100420.25;;;23.72;51.38
40788;BME280;26497;52.494;7.546;2023-05-10T11:48:53;100424.38;;;23.63;49.69
40788;BME280;26497;52.494;7.546;2023-05-10T11:51:22;100426.34;;;23.90;51.08
40788;BME280;26497;52.494;7.546;2023-05-10T11:53:52;100429.22;;;24.03;49.25
40788;BME280;26497;52.494;7.546;2023-05-10T11:56:20;100430.19;;;23.86;50.04
40788;BME280;26497;52.494;7.546;2023-05-10T11:58:53;100427.72;;;23.97;49.72
40788;BME280;26497;52.494;7.546;2023-05-10T12:01:22;100427.00;;;24.10;49.40
40788;BME280;26497;52.494;7.546;2023-05-10T12:03:49;100439.94;;;24.48;49.11
40788;BME280;26497;52.494;7.546;2023-05-10T12:06:17;100436.50;;;25.17;49.73
40788;BME280;26497;52.494;7.546;2023-05-10T12:08:45;100435.44;;;25.87;49.17
40788;BME280;26497;52.494;7.546;2023-05-10T12:11:14;100443.31;;;26.18;45.45
40788;BME280;26497;52.494;7.546;2023-05-10T12:13:59;100447.84;;;26.56;45.76
40788;BME280;26497;52.494;7.546;2023-05-10T12:16:29;100449.25;;;26.88;44.20
40788;BME280;26497;52.494;7.546;2023-05-10T12:18:59;100449.13;;;26.89;43.32
40788;BME280;26497;52.494;7.546;2023-05-10T12:21:33;100453.13;;;27.21;42.70
40788;BME280;26497;52.494;7.546;2023-05-10T12:24:02;100447.31;;;27.51;43.59
40788;BME280;26497;52.494;7.546;2023-05-10T12:26:30;100451.00;;;27.86;43.27
40788;BME280;26497;52.494;7.546;2023-05-10T12:29:15;100448.78;;;28.27;41.38
40788;BME280;26497;52.494;7.546;2023-05-10T12:31:51;100457.81;;;28.28;39.17
40788;BME280;26497;52.494;7.546;2023-05-10T12:34:26;100450.41;;;28.52;39.71
40788;BME280;26497;52.494;7.546;2023-05-10T12:36:53;100448.44;;;29.00;40.00
40788;BME280;26497;52.494;7.546;2023-05-10T12:39:21;100452.91;;;28.90;39.59
40788;BME280;26497;52.494;7.546;2023-05-10T12:41:48;100446.72;;;28.99;40.05
40788;BME280;26497;52.494;7.546;2023-05-10T12:44:16;100454.34;;;28.71;40.32
40788;BME280;26497;52.494;7.546;2023-05-10T12:46:43;100455.63;;;28.44;40.07
40788;BME280;26497;52.494;7.546;2023-05-10T12:49:10;100461.78;;;28.46;41.36
40788;BME280;26497;52.494;7.546;2023-05-10T12:51:37;100458.78;;;28.72;40.04
40788;BME280;26497;52.494;7.546;2023-05-10T12:54:04;100456.09;;;29.06;39.58
40788;BME280;26497;52.494;7.546;2023-05-10T12:56:31;100453.63;;;29.03;39.63
40788;BME280;26497;52.494;7.546;2023-05-10T12:58:58;100465.66;;;29.33;37.55
40788;BME280;26497;52.494;7.546;2023-05-10T13:01:27;100463.66;;;30.33;37.34
40788;BME280;26497;52.494;7.546;2023-05-10T13:03:53;100463.81;;;31.84;35.18
40788;BME280;26497;52.494;7.546;2023-05-10T13:06:20;100460.56;;;33.13;32.10
40788;BME280;26497;52.494;7.546;2023-05-10T13:08:47;100469.28;;;33.45;31.97
40788;BME280;26497;52.494;7.546;2023-05-10T13:11:14;100469.59;;;33.42;31.84
40788;BME280;26497;52.494;7.546;2023-05-10T13:13:42;100468.09;;;33.01;31.72